Time;durP1;ratioP1;P1;durP2;ratioP2;P2;SDS_P1;SDS_P2;PMS_P1;PMS_P2;Temp;Humidity;BMP_temperature;BMP_pressure;BME280_temperature;BME280_humidity;BME280_pressure;Samples;Min_cycle;Max_cycle;Signal;HPM_P1;HPM_P2
2023/05/03 00:00:25;;;;;;;;;;;;;;;8.63;91.11;97234.16;5046090;28;19974;-84
2023/05/03 00:02:52;;;;;;;;;;;;;;;8.63;91.79;97237.63;5046914;28;19965;-86
2023/05/03 00:05:18;;;;;;;;;;;;;;;8.65;91.51;97237.41;5046862;28;19952;-79
2023/05/03 00:07:45;;;;;;;;;;;;;;;8.65;90.91;97233.00;5045621;28;19960;-84
2023/05/03 00:10:12;;;;;;;;;;;;;;;8.67;92.65;97238.88;5046756;28;19958;-85
2023/05/03 00:12:41;;;;;;;;;;;;;;;8.68;92.08;97235.25;5046280;28;19974;-73
2023/05/03 00:15:08;;;;;;;;;;;;;;;8.69;91.89;97238.66;5046796;28;19980;-73
2023/05/03 00:17:34;;;;;;;;;;;;;;;8.68;92.67;97239.66;5046563;28;19965;-74
2023/05/03 00:20:00;;;;;;;;;;;;;;;8.68;92.80;97247.50;5046254;28;20220;-74
2023/05/03 00:22:26;;;;;;;;;;;;;;;8.70;92.27;97237.69;5046150;28;19986;-73
2023/05/03 00:24:52;;;;;;;;;;;;;;;8.70;90.58;97232.44;5046249;28;19977;-73
2023/05/03 00:27:18;;;;;;;;;;;;;;;8.73;92.60;97237.28;5046531;28;19960;-71
2023/05/03 00:29:44;;;;;;;;;;;;;;;8.74;92.98;97231.09;5046179;28;19952;-74
2023/05/03 00:32:10;;;;;;;;;;;;;;;8.73;92.32;97225.03;5044798;28;19966;-73
2023/05/03 00:34:36;;;;;;;;;;;;;;;8.77;91.30;97219.44;5046563;28;19957;-72
2023/05/03 00:37:02;;;;;;;;;;;;;;;8.77;90.56;97212.38;5046176;28;19955;-75
2023/05/03 00:39:30;;;;;;;;;;;;;;;8.75;91.17;97214.38;5046436;28;20005;-73
2023/05/03 00:41:56;;;;;;;;;;;;;;;8.70;91.04;97212.31;5045704;28;19983;-72
2023/05/03 00:44:22;;;;;;;;;;;;;;;8.66;94.40;97221.53;5046259;28;19958;-87
2023/05/03 00:46:49;;;;;;;;;;;;;;;8.64;93.12;97213.06;5046171;28;19961;-80
2023/05/03 00:49:15;;;;;;;;;;;;;;;8.61;93.76;97216.06;5046458;28;19948;-73
2023/05/03 00:51:41;;;;;;;;;;;;;;;8.57;92.48;97209.59;5045563;28;19960;-73
2023/05/03 00:54:08;;;;;;;;;;;;;;;8.51;92.97;97213.75;5045655;28;19998;-73
2023/05/03 00:56:34;;;;;;;;;;;;;;;8.49;94.47;97207.91;5045937;28;19966;-73
2023/05/03 00:59:00;;;;;;;;;;;;;;;8.47;95.76;97209.09;5045845;28;19964;-73
2023/05/03 01:01:28;;;;;;;;;;;;;;;8.46;93.99;97204.84;5045572;28;19952;-73
2023/05/03 01:03:53;;;;;;;;;;;;;;;8.42;95.11;97206.19;5045623;28;19962;-83
2023/05/03 01:06:40;;;;;;;;;;;;;;;8.40;94.94;97211.59;5045708;28;19959;-85
2023/05/03 01:09:20;;;;;;;;;;;;;;;8.39;96.02;97215.19;5045870;28;20144;-84
2023/05/03 01:11:52;;;;;;;;;;;;;;;8.40;94.90;97210.78;5044946;28;19955;-85
2023/05/03 01:14:20;;;;;;;;;;;;;;;8.34;94.48;97210.53;5045280;28;19954;-85
2023/05/03 01:16:49;;;;;;;;;;;;;;;8.33;96.36;97211.50;5045264;28;20136;-80
2023/05/03 01:19:27;;;;;;;;;;;;;;;8.31;95.92;97210.06;5045202;28;19952;-80
2023/05/03 01:22:13;;;;;;;;;;;;;;;8.28;95.70;97205.22;5045552;28;20141;-72
2023/05/03 01:24:40;;;;;;;;;;;;;;;8.29;95.63;97210.28;5045479;28;19954;-84
2023/05/03 01:27:08;;;;;;;;;;;;;;;8.28;96.70;97202.63;5045457;28;19955;-85
2023/05/03 01:29:34;;;;;;;;;;;;;;;8.27;95.80;97196.59;5045283;28;19960;-82
2023/05/03 01:32:00;;;;;;;;;;;;;;;8.21;96.31;97197.31;5044793;28;20242;-84
2023/05/03 01:34:26;;;;;;;;;;;;;;;8.16;96.19;97197.06;5045025;28;19956;-84
2023/05/03 01:36:55;;;;;;;;;;;;;;;8.15;95.15;97192.84;5044244;28;20027;-83
2023/05/03 01:39:40;;;;;;;;;;;;;;;8.14;96.33;97193.81;5044575;28;19962;-74
2023/05/03 01:42:06;;;;;;;;;;;;;;;8.14;96.53;97196.44;5045035;28;19952;-81
2023/05/03 01:44:32;;;;;;;;;;;;;;;8.14;96.96;97192.00;5045069;28;19961;-71
2023/05/03 01:46:58;;;;;;;;;;;;;;;8.13;96.71;97195.63;5045136;28;19963;-71
2023/05/03 01:49:24;;;;;;;;;;;;;;;8.14;97.70;97199.84;5044965;28;19961;-71
2023/05/03 01:51:49;;;;;;;;;;;;;;;8.17;96.89;97190.84;5044846;28;19963;-71
2023/05/03 01:54:16;;;;;;;;;;;;;;;8.16;96.67;97197.06;5044934;28;20029;-71
2023/05/03 01:56:43;;;;;;;;;;;;;;;8.13;96.89;97195.63;5045220;28;20120;-72
2023/05/03 01:59:09;;;;;;;;;;;;;;;8.11;96.51;97191.59;5045047;28;20177;-80
2023/05/03 02:01:35;;;;;;;;;;;;;;;8.09;97.01;97193.56;5044847;28;19948;-78
2023/05/03 02:04:01;;;;;;;;;;;;;;;8.06;96.16;97194.75;5045028;28;19958;-86
2023/05/03 02:06:27;;;;;;;;;;;;;;;8.06;96.00;97191.31;5044585;28;19960;-86
2023/05/03 02:08:53;;;;;;;;;;;;;;;8.04;95.73;97196.72;5043641;28;19959;-86
2023/05/03 02:11:20;;;;;;;;;;;;;;;8.01;95.90;97186.63;5044454;28;19967;-84
2023/05/03 02:13:47;;;;;;;;;;;;;;;8.01;94.89;97188.44;5044548;28;19955;-84
2023/05/03 02:16:13;;;;;;;;;;;;;;;7.98;95.46;97188.78;5044493;28;19957;-73
2023/05/03 02:18:38;;;;;;;;;;;;;;;7.94;95.27;97190.97;5044512;28;19963;-78
2023/05/03 02:21:05;;;;;;;;;;;;;;;7.91;95.82;97189.53;5044207;28;19954;-73
2023/05/03 02:23:31;;;;;;;;;;;;;;;7.88;95.93;97202.97;5043132;28;20146;-73
2023/05/03 02:25:57;;;;;;;;;;;;;;;7.84;96.40;97201.69;5043976;28;19939;-73
2023/05/03 02:28:23;;;;;;;;;;;;;;;7.80;96.22;97199.63;5044074;28;19984;-74
2023/05/03 02:30:49;;;;;;;;;;;;;;;7.75;96.06;97202.81;5044062;28;20111;-73
2023/05/03 02:33:14;;;;;;;;;;;;;;;7.68;96.33;97192.25;5044647;28;20245;-73
2023/05/03 02:35:40;;;;;;;;;;;;;;;7.61;95.83;97191.34;5044696;28;19949;-73
2023/05/03 02:38:06;;;;;;;;;;;;;;;7.52;96.55;97190.66;5044355;28;19961;-79
2023/05/03 02:40:32;;;;;;;;;;;;;;;7.45;96.69;97197.56;5044139;28;19986;-80
2023/05/03 02:42:59;;;;;;;;;;;;;;;7.37;95.80;97182.00;5044377;28;20039;-78
2023/05/03 02:45:25;;;;;;;;;;;;;;;7.27;98.67;97191.91;5044171;28;19958;-79
2023/05/03 02:47:51;;;;;;;;;;;;;;;7.20;99.04;97197.03;5044253;28;19959;-79
2023/05/03 02:50:17;;;;;;;;;;;;;;;7.16;98.19;97202.75;5044246;28;20244;-78
2023/05/03 02:52:43;;;;;;;;;;;;;;;7.12;98.92;97194.47;5044206;28;19999;-79
2023/05/03 02:55:09;;;;;;;;;;;;;;;7.11;99.35;97193.66;5044285;28;19964;-73
2023/05/03 02:57:35;;;;;;;;;;;;;;;7.09;99.21;97195.63;5044461;28;19950;-71
2023/05/03 03:00:00;;;;;;;;;;;;;;;7.11;99.26;97198.88;5043728;28;19951;-73
2023/05/03 03:02:26;;;;;;;;;;;;;;;7.13;99.53;97206.53;5043757;28;19948;-73
2023/05/03 03:04:52;;;;;;;;;;;;;;;7.12;98.80;97197.09;5044402;28;20032;-74
2023/05/03 03:07:18;;;;;;;;;;;;;;;7.05;98.67;97191.75;5043583;28;20021;-73
2023/05/03 03:09:44;;;;;;;;;;;;;;;7.02;98.63;97192.09;5044257;28;19967;-74
2023/05/03 03:12:10;;;;;;;;;;;;;;;7.00;97.68;97178.44;5043806;28;19959;-73
2023/05/03 03:14:36;;;;;;;;;;;;;;;6.98;98.77;97190.03;5043963;28;20200;-82
2023/05/03 03:17:06;;;;;;;;;;;;;;;6.95;99.20;97196.44;5043957;28;20159;-81
2023/05/03 03:19:31;;;;;;;;;;;;;;;6.92;97.26;97181.13;5043962;28;19960;-83
2023/05/03 03:21:57;;;;;;;;;;;;;;;6.86;98.73;97192.25;5044084;28;19957;-83
2023/05/03 03:24:23;;;;;;;;;;;;;;;6.76;98.11;97189.06;5044021;28;19952;-86
2023/05/03 03:26:49;;;;;;;;;;;;;;;6.66;100.00;97190.13;5044064;28;20125;-85
2023/05/03 03:29:15;;;;;;;;;;;;;;;6.61;99.84;97184.59;5044015;28;20004;-87
2023/05/03 03:31:41;;;;;;;;;;;;;;;6.61;100.00;97194.22;5044238;28;19965;-73
2023/05/03 03:34:06;;;;;;;;;;;;;;;6.59;100.00;97193.59;5045820;28;20250;-73
2023/05/03 03:36:32;;;;;;;;;;;;;;;6.56;100.00;97189.53;5047324;28;19963;-73
2023/05/03 03:38:58;;;;;;;;;;;;;;;6.55;100.00;97187.09;5047195;28;19963;-73
2023/05/03 03:41:24;;;;;;;;;;;;;;;6.53;100.00;97189.06;5045914;28;19959;-74
2023/05/03 03:43:50;;;;;;;;;;;;;;;6.48;100.00;97187.00;5047195;28;19985;-73
2023/05/03 03:46:16;;;;;;;;;;;;;;;6.48;100.00;97193.00;5046000;28;19977;-73
2023/05/03 03:48:41;;;;;;;;;;;;;;;6.51;100.00;97186.66;5047255;28;19978;-71
2023/05/03 03:51:07;;;;;;;;;;;;;;;6.50;100.00;97187.63;5047236;28;19967;-73
2023/05/03 03:53:33;;;;;;;;;;;;;;;6.48;100.00;97187.78;5047146;28;19959;-72
2023/05/03 03:55:59;;;;;;;;;;;;;;;6.48;100.00;97194.81;5046624;28;19934;-72
2023/05/03 03:58:25;;;;;;;;;;;;;;;6.48;100.00;97194.81;5046668;28;19968;-72
2023/05/03 04:00:51;;;;;;;;;;;;;;;6.50;100.00;97203.25;5047389;28;19964;-71
2023/05/03 04:03:17;;;;;;;;;;;;;;;6.51;100.00;97202.31;5047014;28;19962;-72
2023/05/03 04:05:43;;;;;;;;;;;;;;;6.52;100.00;97193.47;5046424;28;19982;-71
2023/05/03 04:08:09;;;;;;;;;;;;;;;6.53;100.00;97205.53;5046680;28;20161;-72
2023/05/03 04:10:34;;;;;;;;;;;;;;;6.53;100.00;97202.09;5046633;28;19956;-79
2023/05/03 04:13:00;;;;;;;;;;;;;;;6.55;100.00;97206.19;5046648;28;19964;-78
2023/05/03 04:15:26;;;;;;;;;;;;;;;6.58;100.00;97212.84;5045309;28;19964;-78
2023/05/03 04:17:52;;;;;;;;;;;;;;;6.61;100.00;97215.06;5046595;28;20194;-78
2023/05/03 04:20:18;;;;;;;;;;;;;;;6.63;100.00;97215.72;5046639;28;19964;-77
2023/05/03 04:22:44;;;;;;;;;;;;;;;6.65;100.00;97221.56;5046684;28;19998;-79
2023/05/03 04:25:12;;;;;;;;;;;;;;;6.66;100.00;97225.81;5046627;28;20237;-73
2023/05/03 04:27:39;;;;;;;;;;;;;;;6.66;100.00;97224.00;5046185;28;19956;-73
2023/05/03 04:30:05;;;;;;;;;;;;;;;6.68;100.00;97214.22;5045425;28;20262;-72
2023/05/03 04:32:36;;;;;;;;;;;;;;;6.69;100.00;97218.44;5046030;28;19972;-72
2023/05/03 04:35:07;;;;;;;;;;;;;;;6.72;100.00;97232.94;5046104;28;20270;-73
2023/05/03 04:37:32;;;;;;;;;;;;;;;6.73;100.00;97226.72;5046518;28;19954;-72
2023/05/03 04:39:58;;;;;;;;;;;;;;;6.76;100.00;97222.97;5046193;28;20100;-72
2023/05/03 04:42:24;;;;;;;;;;;;;;;6.80;100.00;97222.44;5046387;28;19968;-72
2023/05/03 04:44:50;;;;;;;;;;;;;;;6.84;100.00;97225.50;5045591;28;20033;-73
2023/05/03 04:47:16;;;;;;;;;;;;;;;6.84;100.00;97213.28;5044839;28;19965;-77
2023/05/03 04:49:42;;;;;;;;;;;;;;;6.83;100.00;97224.69;5028362;28;19967;-77
2023/05/03 04:52:09;;;;;;;;;;;;;;;6.85;100.00;97230.56;5045928;28;19970;-78
2023/05/03 04:54:35;;;;;;;;;;;;;;;6.89;100.00;97231.81;5044927;28;20126;-77
2023/05/03 04:57:01;;;;;;;;;;;;;;;6.94;100.00;97230.50;5046202;28;19961;-78
2023/05/03 04:59:26;;;;;;;;;;;;;;;6.97;100.00;97235.34;5045595;28;19959;-77
2023/05/03 05:01:52;;;;;;;;;;;;;;;7.00;100.00;97237.63;5045561;28;19958;-72
2023/05/03 05:04:18;;;;;;;;;;;;;;;7.06;100.00;97239.53;5045566;28;19964;-87
2023/05/03 05:06:44;;;;;;;;;;;;;;;7.12;100.00;97238.81;5045628;28;19951;-84
2023/05/03 05:09:20;;;;;;;;;;;;;;;7.14;100.00;97236.84;5045575;28;19960;-84
2023/05/03 05:11:46;;;;;;;;;;;;;;;7.20;100.00;97240.53;5045552;28;19980;-84
2023/05/03 05:14:12;;;;;;;;;;;;;;;7.25;100.00;97244.25;5045161;28;19995;-83
2023/05/03 05:16:38;;;;;;;;;;;;;;;7.31;100.00;97243.53;5045657;28;20172;-83
2023/05/03 05:19:04;;;;;;;;;;;;;;;7.33;100.00;97240.75;5045566;28;20008;-83
2023/05/03 05:21:30;;;;;;;;;;;;;;;7.39;100.00;97241.81;5045006;28;19945;-73
2023/05/03 05:23:56;;;;;;;;;;;;;;;7.46;100.00;97245.38;5045028;28;19967;-73
2023/05/03 05:26:21;;;;;;;;;;;;;;;7.51;100.00;97250.84;5044957;28;19956;-73
2023/05/03 05:28:47;;;;;;;;;;;;;;;7.54;100.00;97255.72;5045628;28;20119;-73
2023/05/03 05:31:14;;;;;;;;;;;;;;;7.59;100.00;97255.19;5045021;28;19952;-73
2023/05/03 05:33:40;;;;;;;;;;;;;;;7.63;100.00;97259.06;5044923;28;19971;-73
2023/05/03 05:36:06;;;;;;;;;;;;;;;7.68;100.00;97257.50;5045016;28;20022;-72
2023/05/03 05:38:32;;;;;;;;;;;;;;;7.73;100.00;97249.97;5045106;28;19978;-72
2023/05/03 05:40:58;;;;;;;;;;;;;;;7.75;100.00;97264.63;5045183;28;19952;-86
2023/05/03 05:43:23;;;;;;;;;;;;;;;7.78;100.00;97257.25;5044726;28;19969;-72
2023/05/03 05:45:49;;;;;;;;;;;;;;;7.84;100.00;97256.53;5043788;28;19955;-72
2023/05/03 05:48:15;;;;;;;;;;;;;;;7.88;100.00;97264.84;5045084;28;19958;-72
2023/05/03 05:50:41;;;;;;;;;;;;;;;7.90;100.00;97257.63;5044890;28;19999;-72
2023/05/03 05:53:08;;;;;;;;;;;;;;;7.94;100.00;97258.88;5045013;28;20029;-71
2023/05/03 05:55:34;;;;;;;;;;;;;;;7.96;100.00;97249.06;5045038;28;19960;-72
2023/05/03 05:58:00;;;;;;;;;;;;;;;7.98;100.00;97252.31;5044753;28;19961;-72
2023/05/03 06:00:26;;;;;;;;;;;;;;;8.00;100.00;97244.28;5044458;28;19992;-73
2023/05/03 06:02:52;;;;;;;;;;;;;;;8.04;100.00;97253.38;5044768;28;19955;-72
2023/05/03 06:05:18;;;;;;;;;;;;;;;8.09;100.00;97262.28;5043154;28;19963;-73
2023/05/03 06:07:43;;;;;;;;;;;;;;;8.12;100.00;97259.31;5044528;28;20195;-72
2023/05/03 06:10:10;;;;;;;;;;;;;;;8.18;100.00;97262.19;5044611;28;19967;-73
2023/05/03 06:12:35;;;;;;;;;;;;;;;8.22;100.00;97259.03;5043981;28;19970;-72
2023/05/03 06:15:01;;;;;;;;;;;;;;;8.20;100.00;97258.41;5043202;28;19961;-72
2023/05/03 06:17:27;;;;;;;;;;;;;;;8.16;100.00;97259.75;5044534;28;20236;-74
2023/05/03 06:19:53;;;;;;;;;;;;;;;8.20;100.00;97253.19;5044574;28;19962;-73
2023/05/03 06:22:19;;;;;;;;;;;;;;;8.26;100.00;97251.66;5044106;28;19953;-73
2023/05/03 06:24:45;;;;;;;;;;;;;;;8.36;100.00;97256.56;5044124;28;19956;-73
2023/05/03 06:27:11;;;;;;;;;;;;;;;8.44;100.00;97246.03;5043413;28;19962;-73
2023/05/03 06:29:37;;;;;;;;;;;;;;;8.50;100.00;97256.59;5044634;28;19962;-72
2023/05/03 06:32:03;;;;;;;;;;;;;;;8.54;100.00;97243.94;5042804;28;19969;-73
2023/05/03 06:34:29;;;;;;;;;;;;;;;8.56;100.00;97254.22;5043274;28;19964;-73
2023/05/03 06:36:55;;;;;;;;;;;;;;;8.58;100.00;97250.41;5044326;28;19954;-72
2023/05/03 06:39:21;;;;;;;;;;;;;;;8.59;100.00;97259.91;5043211;28;19963;-72
2023/05/03 06:41:46;;;;;;;;;;;;;;;8.64;100.00;97252.28;5043839;28;19976;-72
2023/05/03 06:44:12;;;;;;;;;;;;;;;8.72;100.00;97249.56;5044299;28;19964;-73
2023/05/03 06:46:38;;;;;;;;;;;;;;;8.80;100.00;97256.50;5044359;28;20005;-73
2023/05/03 06:49:04;;;;;;;;;;;;;;;8.87;100.00;97246.09;5044316;28;20272;-72
2023/05/03 06:51:31;;;;;;;;;;;;;;;8.86;100.00;97257.53;5043812;28;19940;-72
2023/05/03 06:54:05;;;;;;;;;;;;;;;8.90;100.00;97264.00;5043359;28;20176;-77
2023/05/03 06:56:31;;;;;;;;;;;;;;;8.95;100.00;97256.44;5044346;28;19953;-72
2023/05/03 06:58:57;;;;;;;;;;;;;;;8.93;100.00;97246.13;5044326;28;20152;-72
2023/05/03 07:01:23;;;;;;;;;;;;;;;8.86;100.00;97247.06;5042597;28;19958;-72
2023/05/03 07:03:49;;;;;;;;;;;;;;;8.81;100.00;97252.06;5044352;28;20234;-72
2023/05/03 07:06:15;;;;;;;;;;;;;;;8.76;100.00;97250.00;5044244;28;20029;-72
2023/05/03 07:08:41;;;;;;;;;;;;;;;8.65;100.00;97240.03;5045054;28;19958;-72
2023/05/03 07:11:07;;;;;;;;;;;;;;;8.57;100.00;97242.75;5047406;28;19963;-74
2023/05/03 07:13:33;;;;;;;;;;;;;;;8.54;100.00;97249.16;5047776;28;19970;-73
2023/05/03 07:15:59;;;;;;;;;;;;;;;8.61;100.00;97251.84;5047884;28;19956;-79
2023/05/03 07:18:25;;;;;;;;;;;;;;;8.67;100.00;97238.88;5046347;28;19970;-79
2023/05/03 07:20:50;;;;;;;;;;;;;;;8.73;100.00;97252.97;5047514;28;19945;-79
2023/05/03 07:23:16;;;;;;;;;;;;;;;8.76;100.00;97251.78;5047764;28;19955;-79
2023/05/03 07:25:42;;;;;;;;;;;;;;;8.73;100.00;97248.59;5047257;28;19989;-78
2023/05/03 07:28:08;;;;;;;;;;;;;;;8.70;100.00;97253.38;5047255;28;19966;-79
2023/05/03 07:30:34;;;;;;;;;;;;;;;8.88;100.00;97240.69;5047753;28;19953;-73
2023/05/03 07:33:00;;;;;;;;;;;;;;;9.06;100.00;97239.41;5029923;28;19989;-71
2023/05/03 07:35:26;;;;;;;;;;;;;;;9.09;100.00;97234.63;5045929;28;20002;-71
2023/05/03 07:37:52;;;;;;;;;;;;;;;9.17;100.00;97235.47;5047330;28;19964;-71
2023/05/03 07:40:18;;;;;;;;;;;;;;;9.17;100.00;97228.41;5046924;28;20185;-72
2023/05/03 07:42:44;;;;;;;;;;;;;;;9.25;100.00;97219.63;5047407;28;19958;-72
2023/05/03 07:45:10;;;;;;;;;;;;;;;9.36;100.00;97216.47;5047352;28;19960;-71
2023/05/03 07:47:38;;;;;;;;;;;;;;;9.45;99.53;97219.75;5047524;28;19957;-73
2023/05/03 07:50:05;;;;;;;;;;;;;;;9.42;100.00;97222.78;5047478;28;19960;-78
2023/05/03 07:52:37;;;;;;;;;;;;;;;9.45;100.00;97223.22;5046838;28;19983;-81
2023/05/03 07:55:04;;;;;;;;;;;;;;;9.44;100.00;97221.56;5046857;28;20270;-81
2023/05/03 07:57:30;;;;;;;;;;;;;;;9.52;100.00;97225.88;5046897;28;19964;-82
2023/05/03 07:59:56;;;;;;;;;;;;;;;9.66;100.00;97230.19;5046533;28;19958;-82
2023/05/03 08:02:22;;;;;;;;;;;;;;;9.78;98.82;97221.78;5046677;28;19960;-82
2023/05/03 08:04:48;;;;;;;;;;;;;;;9.89;99.93;97229.09;5046774;28;19997;-82
2023/05/03 08:07:14;;;;;;;;;;;;;;;10.03;98.97;97227.34;5046789;28;20256;-82
2023/05/03 08:09:40;;;;;;;;;;;;;;;10.19;95.98;97200.00;5045942;28;20123;-79
2023/05/03 08:12:06;;;;;;;;;;;;;;;10.30;96.97;97204.69;5046381;28;19963;-78
2023/05/03 08:14:32;;;;;;;;;;;;;;;10.43;96.63;97207.34;5046622;28;20037;-79
2023/05/03 08:16:59;;;;;;;;;;;;;;;10.60;94.05;97189.41;5046442;28;20258;-79
2023/05/03 08:19:25;;;;;;;;;;;;;;;10.79;95.47;97192.28;5045083;28;19949;-79
2023/05/03 08:21:53;;;;;;;;;;;;;;;11.44;94.93;97188.00;5046342;28;19965;-78
2023/05/03 08:24:19;;;;;;;;;;;;;;;12.19;93.05;97185.78;5046610;28;19957;-75
2023/05/03 08:26:47;;;;;;;;;;;;;;;12.54;90.44;97174.06;5046474;28;20248;-73
2023/05/03 08:29:13;;;;;;;;;;;;;;;12.59;84.35;97122.41;5046527;28;19980;-73
2023/05/03 08:31:39;;;;;;;;;;;;;;;12.46;85.17;97143.56;5046049;28;20137;-73
2023/05/03 08:34:06;;;;;;;;;;;;;;;12.48;83.91;97141.53;5046033;28;19968;-73
2023/05/03 08:36:33;;;;;;;;;;;;;;;12.59;86.07;97148.72;5045948;28;19961;-73
2023/05/03 08:39:00;;;;;;;;;;;;;;;12.85;86.41;97162.72;5045591;28;20117;-73
2023/05/03 08:41:27;;;;;;;;;;;;;;;13.12;84.75;97152.78;5046078;28;19965;-73
2023/05/03 08:43:54;;;;;;;;;;;;;;;13.20;84.36;97144.56;5046064;28;20132;-74
2023/05/03 08:46:20;;;;;;;;;;;;;;;13.16;81.44;97122.31;5045593;28;19944;-72
2023/05/03 08:48:46;;;;;;;;;;;;;;;13.12;82.51;97133.53;5046129;28;19962;-72
2023/05/03 08:51:12;;;;;;;;;;;;;;;13.09;84.30;97149.78;5044787;28;20136;-72
2023/05/03 08:53:38;;;;;;;;;;;;;;;13.10;83.92;97146.94;5045773;28;19975;-72
2023/05/03 08:56:05;;;;;;;;;;;;;;;13.37;81.31;97110.59;5045500;28;19958;-72
2023/05/03 08:58:33;;;;;;;;;;;;;;;13.70;80.17;97101.53;5045766;28;19964;-72
2023/05/03 09:01:03;;;;;;;;;;;;;;;14.03;80.38;97116.13;5045542;28;20141;-73
2023/05/03 09:03:30;;;;;;;;;;;;;;;14.04;81.07;97123.00;5045687;28;19963;-80
2023/05/03 09:06:00;;;;;;;;;;;;;;;13.89;80.16;97126.03;5045766;28;19958;-74
2023/05/03 09:08:27;;;;;;;;;;;;;;;13.81;82.46;97150.06;5045220;28;19960;-74
2023/05/03 09:10:53;;;;;;;;;;;;;;;13.76;81.17;97128.84;5045647;28;19952;-74
2023/05/03 09:13:18;;;;;;;;;;;;;;;13.96;82.20;97144.41;5045082;28;19954;-75
2023/05/03 09:15:54;;;;;;;;;;;;;;;14.12;81.69;97129.81;5045651;28;20009;-74
2023/05/03 09:18:20;;;;;;;;;;;;;;;14.29;80.24;97125.50;5045152;28;19986;-76
2023/05/03 09:20:52;;;;;;;;;;;;;;;14.43;80.96;97133.25;5045269;28;20050;-80
2023/05/03 09:23:30;;;;;;;;;;;;;;;14.63;77.10;97088.91;5045348;28;19960;-73
2023/05/03 09:25:56;;;;;;;;;;;;;;;14.78;70.88;97052.31;5045333;28;19961;-73
2023/05/03 09:28:24;;;;;;;;;;;;;;;14.79;71.64;97048.63;5044201;28;20261;-73
2023/05/03 09:31:02;;;;;;;;;;;;;;;14.74;70.93;97042.41;5044537;28;20129;-73
2023/05/03 09:33:28;;;;;;;;;;;;;;;14.83;68.44;97030.50;5044958;28;20221;-73
2023/05/03 09:35:58;;;;;;;;;;;;;;;14.81;67.43;97019.34;5045116;28;20018;-73
2023/05/03 09:38:25;;;;;;;;;;;;;;;14.91;71.04;97042.53;5045102;28;20229;-73
2023/05/03 09:40:50;;;;;;;;;;;;;;;14.94;69.88;97039.44;5045307;28;19970;-73
2023/05/03 09:43:16;;;;;;;;;;;;;;;14.97;69.73;97044.25;5045395;28;19961;-73
2023/05/03 09:45:42;;;;;;;;;;;;;;;15.06;69.40;97050.00;5043670;28;20003;-73
2023/05/03 09:48:08;;;;;;;;;;;;;;;15.13;66.87;97043.53;5045241;28;20313;-72
2023/05/03 09:50:35;;;;;;;;;;;;;;;15.27;68.56;97067.09;5044653;28;19958;-72
2023/05/03 09:53:02;;;;;;;;;;;;;;;15.26;67.45;97110.38;5043341;28;19970;-72
2023/05/03 09:55:36;;;;;;;;;;;;;;;15.32;64.99;97112.91;5044629;28;19960;-73
2023/05/03 09:58:05;;;;;;;;;;;;;;;15.61;70.40;97145.50;5044308;28;19961;-77
2023/05/03 10:00:41;;;;;;;;;;;;;;;15.79;64.61;97117.31;5044759;28;19959;-79
2023/05/03 10:03:08;;;;;;;;;;;;;;;16.05;68.01;97136.38;5044776;28;19962;-80
2023/05/03 10:05:37;;;;;;;;;;;;;;;16.22;65.46;97116.81;5044970;28;19954;-80
2023/05/03 10:08:04;;;;;;;;;;;;;;;16.42;67.44;97121.69;5044637;28;19953;-80
2023/05/03 10:10:31;;;;;;;;;;;;;;;16.41;62.23;97122.72;5044213;28;19963;-79
2023/05/03 10:12:58;;;;;;;;;;;;;;;16.40;63.06;97126.44;5044110;28;19972;-80
2023/05/03 10:15:24;;;;;;;;;;;;;;;16.40;60.62;97117.69;5044484;28;20137;-72
2023/05/03 10:17:52;;;;;;;;;;;;;;;16.45;59.88;97117.75;5043026;28;19971;-79
2023/05/03 10:20:32;;;;;;;;;;;;;;;16.55;61.83;97120.59;5044397;28;19964;-79
2023/05/03 10:23:08;;;;;;;;;;;;;;;16.80;61.67;97124.69;5044432;28;19954;-79
2023/05/03 10:25:35;;;;;;;;;;;;;;;17.14;63.26;97120.22;5044529;28;19965;-80
2023/05/03 10:28:05;;;;;;;;;;;;;;;17.35;59.14;97109.91;5044151;28;19957;-79
2023/05/03 10:30:35;;;;;;;;;;;;;;;17.47;59.82;97115.06;5043946;28;19959;-79
2023/05/03 10:33:13;;;;;;;;;;;;;;;17.64;60.54;97118.50;5043982;28;19958;-77
2023/05/03 10:35:40;;;;;;;;;;;;;;;17.79;59.31;97109.91;5044099;28;19966;-72
2023/05/03 10:38:22;;;;;;;;;;;;;;;17.81;58.63;97127.19;5044143;28;19955;-74
2023/05/03 10:40:47;;;;;;;;;;;;;;;17.77;52.92;97109.38;5043076;28;19959;-74
2023/05/03 10:43:29;;;;;;;;;;;;;;;17.63;56.40;97130.13;5046488;28;20290;-75
2023/05/03 10:45:55;;;;;;;;;;;;;;;17.51;57.66;97126.78;5047260;28;19972;-74
2023/05/03 10:48:21;;;;;;;;;;;;;;;17.64;55.81;97126.44;5048398;28;19957;-75
2023/05/03 10:50:47;;;;;;;;;;;;;;;17.83;56.67;97121.66;5046928;28;20265;-74
2023/05/03 10:53:43;;;;;;;;;;;;;;;17.97;51.90;97106.94;5046817;28;19962;-74
2023/05/03 10:56:10;;;;;;;;;;;;;;;18.11;52.68;97118.00;5039843;28;20136;-79
2023/05/03 10:58:37;;;;;;;;;;;;;;;18.03;53.89;97113.91;5048328;28;20237;-79
2023/05/03 11:01:04;;;;;;;;;;;;;;;18.07;56.60;97129.34;5048213;28;19958;-80
2023/05/03 11:03:30;;;;;;;;;;;;;;;18.32;56.38;97118.19;5048121;28;19962;-79
2023/05/03 11:05:56;;;;;;;;;;;;;;;18.43;51.82;97117.25;5048106;28;20211;-79
2023/05/03 11:08:29;;;;;;;;;;;;;;;18.43;54.57;97110.06;5047636;28;19985;-81
2023/05/03 11:10:56;;;;;;;;;;;;;;;18.62;53.68;97109.69;5046593;28;20234;-76
2023/05/03 11:13:22;;;;;;;;;;;;;;;18.78;54.20;97103.50;5047587;28;19975;-75
2023/05/03 11:15:48;;;;;;;;;;;;;;;18.68;53.45;97108.69;5047657;28;19954;-75
2023/05/03 11:18:14;;;;;;;;;;;;;;;18.76;52.87;97100.25;5046460;28;20157;-75
2023/05/03 11:20:40;;;;;;;;;;;;;;;18.75;51.82;97090.69;5047852;28;19982;-75
2023/05/03 11:23:06;;;;;;;;;;;;;;;18.26;51.68;97094.25;5047693;28;19960;-75
2023/05/03 11:25:33;;;;;;;;;;;;;;;17.85;53.21;97096.50;5047803;28;20028;-74
2023/05/03 11:28:00;;;;;;;;;;;;;;;17.52;51.73;97094.72;5047846;28;19954;-75
2023/05/03 11:30:28;;;;;;;;;;;;;;;17.67;53.53;97101.28;5047728;28;19997;-73
2023/05/03 11:32:54;;;;;;;;;;;;;;;17.91;49.25;97089.41;5047769;28;19941;-73
2023/05/03 11:35:22;;;;;;;;;;;;;;;18.32;53.41;97081.81;5047667;28;19969;-72
2023/05/03 11:37:48;;;;;;;;;;;;;;;18.56;49.95;97078.84;5047559;28;19963;-72
2023/05/03 11:40:15;;;;;;;;;;;;;;;18.35;48.62;97069.88;5047237;28;19961;-72
2023/05/03 11:42:51;;;;;;;;;;;;;;;18.02;50.53;97088.44;5045902;28;19958;-72
2023/05/03 11:45:24;;;;;;;;;;;;;;;17.91;52.16;97089.41;5047178;28;19962;-72
2023/05/03 11:47:50;;;;;;;;;;;;;;;17.97;52.28;97077.75;5047197;28;19959;-74
2023/05/03 11:50:17;;;;;;;;;;;;;;;17.98;51.11;97083.88;5047385;28;20013;-81
2023/05/03 11:52:43;;;;;;;;;;;;;;;17.93;50.15;97076.69;5047249;28;19961;-79
2023/05/03 11:55:10;;;;;;;;;;;;;;;18.19;53.01;97084.91;5044983;28;19954;-77
2023/05/03 11:57:37;;;;;;;;;;;;;;;18.58;48.99;97074.91;5046611;28;19949;-78
2023/05/03 12:00:16;;;;;;;;;;;;;;;18.77;47.61;97072.66;5046746;28;19962;-78
2023/05/03 12:02:43;;;;;;;;;;;;;;;18.56;50.23;97079.66;5046697;28;20239;-77
2023/05/03 12:05:09;;;;;;;;;;;;;;;18.65;50.20;97074.69;5047035;28;19955;-75
2023/05/03 12:07:36;;;;;;;;;;;;;;;18.91;48.96;97070.38;5046418;28;19966;-73
2023/05/03 12:10:12;;;;;;;;;;;;;;;18.72;49.51;97077.91;5046417;28;19972;-75
2023/05/03 12:12:38;;;;;;;;;;;;;;;18.42;46.90;97067.84;5046741;28;19981;-75
2023/05/03 12:15:04;;;;;;;;;;;;;;;18.56;49.75;97076.19;5047007;28;19968;-75
2023/05/03 12:17:37;;;;;;;;;;;;;;;18.94;49.82;97077.00;5046632;28;19989;-75
2023/05/03 12:20:17;;;;;;;;;;;;;;;19.03;46.11;97080.81;5046217;28;19980;-76
2023/05/03 12:22:42;;;;;;;;;;;;;;;18.92;49.08;97079.94;5046285;28;19961;-76
2023/05/03 12:25:08;;;;;;;;;;;;;;;19.07;49.57;97084.56;5046423;28;20025;-75
2023/05/03 12:27:34;;;;;;;;;;;;;;;19.23;50.17;97080.94;5046589;28;19969;-75
2023/05/03 12:30:00;;;;;;;;;;;;;;;19.13;49.20;97078.22;5046742;28;20140;-74
2023/05/03 12:32:26;;;;;;;;;;;;;;;19.23;50.12;97078.28;5046320;28;19966;-75
2023/05/03 12:34:55;;;;;;;;;;;;;;;19.57;50.39;97071.75;5046490;28;19962;-74
2023/05/03 12:37:21;;;;;;;;;;;;;;;19.81;47.56;97061.50;5046193;28;19965;-75
2023/05/03 12:39:47;;;;;;;;;;;;;;;20.01;47.78;97061.56;5045883;28;19957;-74
2023/05/03 12:42:13;;;;;;;;;;;;;;;19.99;45.58;97053.06;5046425;28;19957;-75
2023/05/03 12:44:39;;;;;;;;;;;;;;;19.82;47.07;97063.09;5046483;28;20015;-75
2023/05/03 12:47:05;;;;;;;;;;;;;;;19.82;42.60;97049.78;5046238;28;19960;-72
2023/05/03 12:49:31;;;;;;;;;;;;;;;19.94;48.04;97053.03;5046205;28;19999;-72